sensor_id;sensor_type;location;lat;lon;timestamp;temperature;humidity
16893;DHT22;8563;52.242;9.098;2022-09-01T00:00:35;14.50;81.80
16893;DHT22;8563;52.242;9.098;2022-09-01T00:03:08;14.40;81.60
16893;DHT22;8563;52.242;9.098;2022-09-01T00:05:43;14.40;81.80
16893;DHT22;8563;52.242;9.098;2022-09-01T00:08:16;14.40;81.80
16893;DHT22;8563;52.242;9.098;2022-09-01T00:10:48;14.40;82.30
16893;DHT22;8563;52.242;9.098;2022-09-01T00:13:21;14.30;82.10
16893;DHT22;8563;52.242;9.098;2022-09-01T00:15:55;14.30;82.30
16893;DHT22;8563;52.242;9.098;2022-09-01T00:18:27;14.30;82.40
16893;DHT22;8563;52.242;9.098;2022-09-01T00:21:01;14.30;82.60
16893;DHT22;8563;52.242;9.098;2022-09-01T00:23:33;14.20;82.90
16893;DHT22;8563;52.242;9.098;2022-09-01T00:26:05;14.20;83.10
16893;DHT22;8563;52.242;9.098;2022-09-01T00:28:38;14.20;82.90
16893;DHT22;8563;52.242;9.098;2022-09-01T00:31:13;14.20;83.20
16893;DHT22;8563;52.242;9.098;2022-09-01T00:33:46;14.20;83.40
16893;DHT22;8563;52.242;9.098;2022-09-01T00:36:19;14.20;83.60
16893;DHT22;8563;52.242;9.098;2022-09-01T00:38:52;14.10;83.70
16893;DHT22;8563;52.242;9.098;2022-09-01T00:41:27;14.10;83.90
16893;DHT22;8563;52.242;9.098;2022-09-01T00:44:02;14.10;84.30
16893;DHT22;8563;52.242;9.098;2022-09-01T00:46:39;14.00;84.50
16893;DHT22;8563;52.242;9.098;2022-09-01T00:49:16;14.10;85.30
16893;DHT22;8563;52.242;9.098;2022-09-01T00:51:53;14.00;84.70
16893;DHT22;8563;52.242;9.098;2022-09-01T00:54:30;14.00;84.90
16893;DHT22;8563;52.242;9.098;2022-09-01T00:57:04;14.10;85.10
16893;DHT22;8563;52.242;9.098;2022-09-01T00:59:41;14.10;85.40
16893;DHT22;8563;52.242;9.098;2022-09-01T01:02:16;14.00;85.50
16893;DHT22;8563;52.242;9.098;2022-09-01T01:04:48;14.00;85.80
16893;DHT22;8563;52.242;9.098;2022-09-01T01:07:23;14.00;86.10
16893;DHT22;8563;52.242;9.098;2022-09-01T01:09:57;14.00;86.00
16893;DHT22;8563;52.242;9.098;2022-09-01T01:12:29;14.00;86.50
16893;DHT22;8563;52.242;9.098;2022-09-01T01:15:04;14.10;87.00
16893;DHT22;8563;52.242;9.098;2022-09-01T01:17:38;14.10;86.80
16893;DHT22;8563;52.242;9.098;2022-09-01T01:20:14;14.10;86.50
16893;DHT22;8563;52.242;9.098;2022-09-01T01:23:11;14.10;86.20
16893;DHT22;8563;52.242;9.098;2022-09-01T01:25:49;14.10;86.50
16893;DHT22;8563;52.242;9.098;2022-09-01T01:28:26;14.10;86.90
16893;DHT22;8563;52.242;9.098;2022-09-01T01:31:04;14.00;87.00
16893;DHT22;8563;52.242;9.098;2022-09-01T01:33:43;14.00;87.30
16893;DHT22;8563;52.242;9.098;2022-09-01T01:36:19;14.00;87.80
16893;DHT22;8563;52.242;9.098;2022-09-01T01:39:07;14.00;88.10
16893;DHT22;8563;52.242;9.098;2022-09-01T01:41:43;13.90;88.40
16893;DHT22;8563;52.242;9.098;2022-09-01T01:44:22;13.80;88.50
16893;DHT22;8563;52.242;9.098;2022-09-01T01:46:59;13.80;88.80
16893;DHT22;8563;52.242;9.098;2022-09-01T01:49:35;13.90;89.00
16893;DHT22;8563;52.242;9.098;2022-09-01T01:52:08;13.80;89.30
16893;DHT22;8563;52.242;9.098;2022-09-01T01:54:42;13.80;89.60
16893;DHT22;8563;52.242;9.098;2022-09-01T01:57:18;13.80;89.90
16893;DHT22;8563;52.242;9.098;2022-09-01T01:59:51;13.80;89.70
16893;DHT22;8563;52.242;9.098;2022-09-01T02:02:24;13.80;90.10
16893;DHT22;8563;52.242;9.098;2022-09-01T02:04:56;13.70;90.10
16893;DHT22;8563;52.242;9.098;2022-09-01T02:07:29;13.70;90.20
16893;DHT22;8563;52.242;9.098;2022-09-01T02:10:03;13.70;90.20
16893;DHT22;8563;52.242;9.098;2022-09-01T02:12:37;13.60;90.20
16893;DHT22;8563;52.242;9.098;2022-09-01T02:15:13;13.70;90.40
16893;DHT22;8563;52.242;9.098;2022-09-01T02:17:45;13.60;90.30
16893;DHT22;8563;52.242;9.098;2022-09-01T02:20:19;13.60;90.40
16893;DHT22;8563;52.242;9.098;2022-09-01T02:22:51;13.60;90.50
16893;DHT22;8563;52.242;9.098;2022-09-01T02:25:25;13.50;90.40
16893;DHT22;8563;52.242;9.098;2022-09-01T02:27:59;13.50;90.70
16893;DHT22;8563;52.242;9.098;2022-09-01T02:30:34;13.50;90.90
16893;DHT22;8563;52.242;9.098;2022-09-01T02:33:07;13.40;90.90
16893;DHT22;8563;52.242;9.098;2022-09-01T02:35:40;13.40;91.00
16893;DHT22;8563;52.242;9.098;2022-09-01T02:38:13;13.40;91.10
16893;DHT22;8563;52.242;9.098;2022-09-01T02:40:47;13.40;91.50
16893;DHT22;8563;52.242;9.098;2022-09-01T02:43:23;13.30;91.70
16893;DHT22;8563;52.242;9.098;2022-09-01T02:45:59;13.30;91.50
16893;DHT22;8563;52.242;9.098;2022-09-01T02:48:33;13.20;91.70
16893;DHT22;8563;52.242;9.098;2022-09-01T02:51:11;13.20;91.80
16893;DHT22;8563;52.242;9.098;2022-09-01T02:53:46;13.20;91.80
16893;DHT22;8563;52.242;9.098;2022-09-01T02:56:24;13.20;91.90
16893;DHT22;8563;52.242;9.098;2022-09-01T02:59:00;13.20;91.90
16893;DHT22;8563;52.242;9.098;2022-09-01T03:01:33;13.30;92.00
16893;DHT22;8563;52.242;9.098;2022-09-01T03:04:07;13.30;92.00
16893;DHT22;8563;52.242;9.098;2022-09-01T03:06:41;13.30;92.00
16893;DHT22;8563;52.242;9.098;2022-09-01T03:09:17;13.30;91.90
16893;DHT22;8563;52.242;9.098;2022-09-01T03:11:51;13.20;91.90
16893;DHT22;8563;52.242;9.098;2022-09-01T03:14:25;13.20;92.10
16893;DHT22;8563;52.242;9.098;2022-09-01T03:16:59;13.10;92.30
16893;DHT22;8563;52.242;9.098;2022-09-01T03:19:32;13.10;92.40
16893;DHT22;8563;52.242;9.098;2022-09-01T03:22:15;13.10;92.40
16893;DHT22;8563;52.242;9.098;2022-09-01T03:24:49;13.00;92.60
16893;DHT22;8563;52.242;9.098;2022-09-01T03:27:22;13.00;92.60
16893;DHT22;8563;52.242;9.098;2022-09-01T03:29:56;12.90;92.60
16893;DHT22;8563;52.242;9.098;2022-09-01T03:32:28;12.90;92.70
16893;DHT22;8563;52.242;9.098;2022-09-01T03:35:01;12.90;92.80
16893;DHT22;8563;52.242;9.098;2022-09-01T03:37:33;12.90;92.80
16893;DHT22;8563;52.242;9.098;2022-09-01T03:40:08;12.90;93.00
16893;DHT22;8563;52.242;9.098;2022-09-01T03:42:41;12.90;93.00
16893;DHT22;8563;52.242;9.098;2022-09-01T03:45:15;12.80;92.90
16893;DHT22;8563;52.242;9.098;2022-09-01T03:47:51;12.80;92.90
16893;DHT22;8563;52.242;9.098;2022-09-01T03:50:24;12.80;93.00
16893;DHT22;8563;52.242;9.098;2022-09-01T03:52:58;12.70;93.10
16893;DHT22;8563;52.242;9.098;2022-09-01T03:55:33;12.70;93.20
16893;DHT22;8563;52.242;9.098;2022-09-01T03:58:09;12.60;93.20
16893;DHT22;8563;52.242;9.098;2022-09-01T04:00:49;12.60;93.30
16893;DHT22;8563;52.242;9.098;2022-09-01T04:03:27;12.60;93.40
16893;DHT22;8563;52.242;9.098;2022-09-01T04:06:02;12.50;93.70
16893;DHT22;8563;52.242;9.098;2022-09-01T04:08:37;12.40;93.80
16893;DHT22;8563;52.242;9.098;2022-09-01T04:11:12;12.40;93.80
16893;DHT22;8563;52.242;9.098;2022-09-01T04:13:46;12.40;93.80
16893;DHT22;8563;52.242;9.098;2022-09-01T04:16:23;12.40;93.80
16893;DHT22;8563;52.242;9.098;2022-09-01T04:19:18;12.40;93.70
16893;DHT22;8563;52.242;9.098;2022-09-01T04:21:56;12.40;93.70
16893;DHT22;8563;52.242;9.098;2022-09-01T04:24:32;12.30;93.80
16893;DHT22;8563;52.242;9.098;2022-09-01T04:27:05;12.30;93.70
16893;DHT22;8563;52.242;9.098;2022-09-01T04:29:39;12.30;93.80
16893;DHT22;8563;52.242;9.098;2022-09-01T04:32:14;12.30;94.00
16893;DHT22;8563;52.242;9.098;2022-09-01T04:34:49;12.30;94.00
16893;DHT22;8563;52.242;9.098;2022-09-01T04:37:22;12.30;94.00
16893;DHT22;8563;52.242;9.098;2022-09-01T04:39:58;12.30;94.00
16893;DHT22;8563;52.242;9.098;2022-09-01T04:42:31;12.30;94.00
16893;DHT22;8563;52.242;9.098;2022-09-01T04:45:07;12.30;93.90
16893;DHT22;8563;52.242;9.098;2022-09-01T04:47:43;12.30;93.90
16893;DHT22;8563;52.242;9.098;2022-09-01T04:50:21;12.30;93.90
16893;DHT22;8563;52.242;9.098;2022-09-01T04:53:15;12.20;94.40
16893;DHT22;8563;52.242;9.098;2022-09-01T04:55:53;12.20;94.30
16893;DHT22;8563;52.242;9.098;2022-09-01T04:58:27;12.10;94.30
16893;DHT22;8563;52.242;9.098;2022-09-01T05:01:00;12.10;94.20
16893;DHT22;8563;52.242;9.098;2022-09-01T05:03:38;12.10;94.10
16893;DHT22;8563;52.242;9.098;2022-09-01T05:06:41;12.10;93.90
16893;DHT22;8563;52.242;9.098;2022-09-01T05:09:15;12.10;93.80
16893;DHT22;8563;52.242;9.098;2022-09-01T05:12:03;12.20;93.80
16893;DHT22;8563;52.242;9.098;2022-09-01T05:14:45;12.20;93.60
16893;DHT22;8563;52.242;9.098;2022-09-01T05:17:21;12.30;93.50
16893;DHT22;8563;52.242;9.098;2022-09-01T05:19:59;12.40;93.40
16893;DHT22;8563;52.242;9.098;2022-09-01T05:22:32;12.50;93.20
16893;DHT22;8563;52.242;9.098;2022-09-01T05:25:09;12.50;93.10
16893;DHT22;8563;52.242;9.098;2022-09-01T05:27:49;12.70;92.90
16893;DHT22;8563;52.242;9.098;2022-09-01T05:30:24;12.70;92.70
16893;DHT22;8563;52.242;9.098;2022-09-01T05:32:58;12.80;92.60
16893;DHT22;8563;52.242;9.098;2022-09-01T05:35:32;12.90;92.50
16893;DHT22;8563;52.242;9.098;2022-09-01T05:38:06;13.00;92.80
16893;DHT22;8563;52.242;9.098;2022-09-01T05:40:55;13.00;92.90
16893;DHT22;8563;52.242;9.098;2022-09-01T05:43:29;13.10;92.90
16893;DHT22;8563;52.242;9.098;2022-09-01T05:46:06;13.20;93.00
16893;DHT22;8563;52.242;9.098;2022-09-01T05:48:40;13.30;92.80
16893;DHT22;8563;52.242;9.098;2022-09-01T05:51:16;13.50;92.70
16893;DHT22;8563;52.242;9.098;2022-09-01T05:53:50;13.60;92.60
16893;DHT22;8563;52.242;9.098;2022-09-01T05:56:26;13.70;92.60
16893;DHT22;8563;52.242;9.098;2022-09-01T05:59:00;13.80;92.40
16893;DHT22;8563;52.242;9.098;2022-09-01T06:01:33;14.00;92.30
16893;DHT22;8563;52.242;9.098;2022-09-01T06:04:11;14.30;91.40
16893;DHT22;8563;52.242;9.098;2022-09-01T06:06:47;14.50;90.20
16893;DHT22;8563;52.242;9.098;2022-09-01T06:09:22;15.00;88.40
16893;DHT22;8563;52.242;9.098;2022-09-01T06:11:57;15.60;86.30
16893;DHT22;8563;52.242;9.098;2022-09-01T06:14:33;16.00;85.10
16893;DHT22;8563;52.242;9.098;2022-09-01T06:17:05;16.50;83.00
16893;DHT22;8563;52.242;9.098;2022-09-01T06:19:41;16.80;81.60
16893;DHT22;8563;52.242;9.098;2022-09-01T06:22:16;16.80;82.30
16893;DHT22;8563;52.242;9.098;2022-09-01T06:24:48;16.90;81.10
16893;DHT22;8563;52.242;9.098;2022-09-01T06:27:22;17.00;81.10
16893;DHT22;8563;52.242;9.098;2022-09-01T06:29:54;17.00;80.40
16893;DHT22;8563;52.242;9.098;2022-09-01T06:32:28;17.00;80.40
16893;DHT22;8563;52.242;9.098;2022-09-01T06:35:01;16.90;80.90
16893;DHT22;8563;52.242;9.098;2022-09-01T06:37:40;17.00;81.00
16893;DHT22;8563;52.242;9.098;2022-09-01T06:40:16;17.10;81.20
16893;DHT22;8563;52.242;9.098;2022-09-01T06:42:50;17.10;81.50
16893;DHT22;8563;52.242;9.098;2022-09-01T06:45:23;17.30;81.00
16893;DHT22;8563;52.242;9.098;2022-09-01T06:47:57;17.50;80.90
16893;DHT22;8563;52.242;9.098;2022-09-01T06:50:29;17.60;80.20
16893;DHT22;8563;52.242;9.098;2022-09-01T06:53:03;17.70;79.60
16893;DHT22;8563;52.242;9.098;2022-09-01T06:55:39;17.80;79.60
16893;DHT22;8563;52.242;9.098;2022-09-01T06:58:12;17.90;79.50
16893;DHT22;8563;52.242;9.098;2022-09-01T07:00:50;18.10;79.20
16893;DHT22;8563;52.242;9.098;2022-09-01T07:03:24;18.10;79.70
16893;DHT22;8563;52.242;9.098;2022-09-01T07:06:16;18.00;80.20
16893;DHT22;8563;52.242;9.098;2022-09-01T07:09:14;17.90;80.10
16893;DHT22;8563;52.242;9.098;2022-09-01T07:11:49;17.70;80.50
16893;DHT22;8563;52.242;9.098;2022-09-01T07:14:23;17.70;80.70
16893;DHT22;8563;52.242;9.098;2022-09-01T07:16:55;17.70;80.70
16893;DHT22;8563;52.242;9.098;2022-09-01T07:19:28;17.70;81.40
16893;DHT22;8563;52.242;9.098;2022-09-01T07:22:05;17.70;81.00
16893;DHT22;8563;52.242;9.098;2022-09-01T07:24:40;17.50;81.20
16893;DHT22;8563;52.242;9.098;2022-09-01T07:27:46;17.50;81.50
16893;DHT22;8563;52.242;9.098;2022-09-01T07:30:21;17.50;81.70
16893;DHT22;8563;52.242;9.098;2022-09-01T07:32:54;17.50;81.50
16893;DHT22;8563;52.242;9.098;2022-09-01T07:35:29;17.60;82.40
16893;DHT22;8563;52.242;9.098;2022-09-01T07:38:03;17.50;81.70
16893;DHT22;8563;52.242;9.098;2022-09-01T07:40:42;17.60;82.60
16893;DHT22;8563;52.242;9.098;2022-09-01T07:43:34;17.60;81.70
16893;DHT22;8563;52.242;9.098;2022-09-01T07:46:25;17.60;82.00
16893;DHT22;8563;52.242;9.098;2022-09-01T07:48:59;17.70;81.80
16893;DHT22;8563;52.242;9.098;2022-09-01T07:51:33;17.80;81.40
16893;DHT22;8563;52.242;9.098;2022-09-01T07:54:06;18.00;81.30
16893;DHT22;8563;52.242;9.098;2022-09-01T07:56:40;18.00;80.90
16893;DHT22;8563;52.242;9.098;2022-09-01T07:59:15;18.00;79.60
16893;DHT22;8563;52.242;9.098;2022-09-01T08:01:59;18.10;80.40
16893;DHT22;8563;52.242;9.098;2022-09-01T08:04:37;18.10;79.80
16893;DHT22;8563;52.242;9.098;2022-09-01T08:07:10;18.30;78.90
16893;DHT22;8563;52.242;9.098;2022-09-01T08:09:42;18.30;78.40
16893;DHT22;8563;52.242;9.098;2022-09-01T08:12:17;18.40;78.40
16893;DHT22;8563;52.242;9.098;2022-09-01T08:14:53;18.50;78.60
16893;DHT22;8563;52.242;9.098;2022-09-01T08:17:26;18.70;78.20
16893;DHT22;8563;52.242;9.098;2022-09-01T08:20:02;18.80;77.30
16893;DHT22;8563;52.242;9.098;2022-09-01T08:22:57;18.90;77.80
16893;DHT22;8563;52.242;9.098;2022-09-01T08:25:41;18.90;76.40
16893;DHT22;8563;52.242;9.098;2022-09-01T08:28:15;19.00;74.80
16893;DHT22;8563;52.242;9.098;2022-09-01T08:30:48;19.00;75.10
16893;DHT22;8563;52.242;9.098;2022-09-01T08:33:23;19.10;75.40
16893;DHT22;8563;52.242;9.098;2022-09-01T08:35:55;19.20;74.40
16893;DHT22;8563;52.242;9.098;2022-09-01T08:38:29;19.20;73.70
16893;DHT22;8563;52.242;9.098;2022-09-01T08:41:03;19.30;74.20
16893;DHT22;8563;52.242;9.098;2022-09-01T08:43:49;19.50;73.40
16893;DHT22;8563;52.242;9.098;2022-09-01T08:46:26;19.60;73.80
16893;DHT22;8563;52.242;9.098;2022-09-01T08:49:01;19.60;73.10
16893;DHT22;8563;52.242;9.098;2022-09-01T08:51:59;19.70;73.00
16893;DHT22;8563;52.242;9.098;2022-09-01T08:54:36;19.80;72.20
16893;DHT22;8563;52.242;9.098;2022-09-01T08:57:14;19.90;73.00
16893;DHT22;8563;52.242;9.098;2022-09-01T09:00:10;20.10;71.50
16893;DHT22;8563;52.242;9.098;2022-09-01T09:02:51;20.20;70.30
16893;DHT22;8563;52.242;9.098;2022-09-01T09:05:34;20.20;70.70
16893;DHT22;8563;52.242;9.098;2022-09-01T09:08:28;20.20;70.20
16893;DHT22;8563;52.242;9.098;2022-09-01T09:11:07;20.40;70.70
16893;DHT22;8563;52.242;9.098;2022-09-01T09:13:56;20.50;69.60
16893;DHT22;8563;52.242;9.098;2022-09-01T09:16:36;20.60;68.80
16893;DHT22;8563;52.242;9.098;2022-09-01T09:19:15;20.60;68.50
16893;DHT22;8563;52.242;9.098;2022-09-01T09:21:52;20.70;68.50
16893;DHT22;8563;52.242;9.098;2022-09-01T09:24:27;20.60;68.10
16893;DHT22;8563;52.242;9.098;2022-09-01T09:27:19;20.80;69.40
16893;DHT22;8563;52.242;9.098;2022-09-01T09:29:53;20.90;67.10
16893;DHT22;8563;52.242;9.098;2022-09-01T09:32:45;21.00;67.40
16893;DHT22;8563;52.242;9.098;2022-09-01T09:35:25;21.10;66.90
16893;DHT22;8563;52.242;9.098;2022-09-01T09:38:16;21.00;65.90
16893;DHT22;8563;52.242;9.098;2022-09-01T09:41:00;20.80;66.30
16893;DHT22;8563;52.242;9.098;2022-09-01T09:43:36;20.90;66.60
16893;DHT22;8563;52.242;9.098;2022-09-01T09:46:23;21.00;66.60
16893;DHT22;8563;52.242;9.098;2022-09-01T09:49:10;21.10;65.60
16893;DHT22;8563;52.242;9.098;2022-09-01T09:51:44;21.20;65.10
16893;DHT22;8563;52.242;9.098;2022-09-01T09:54:21;20.90;66.10
16893;DHT22;8563;52.242;9.098;2022-09-01T09:57:09;20.90;66.50
16893;DHT22;8563;52.242;9.098;2022-09-01T09:59:46;20.90;66.00
16893;DHT22;8563;52.242;9.098;2022-09-01T10:02:26;21.20;64.20
16893;DHT22;8563;52.242;9.098;2022-09-01T10:05:35;21.10;64.20
16893;DHT22;8563;52.242;9.098;2022-09-01T10:08:09;21.20;63.80
16893;DHT22;8563;52.242;9.098;2022-09-01T10:10:44;21.30;63.60
16893;DHT22;8563;52.242;9.098;2022-09-01T10:13:19;21.40;63.70
16893;DHT22;8563;52.242;9.098;2022-09-01T10:15:54;21.40;61.20
16893;DHT22;8563;52.242;9.098;2022-09-01T10:18:30;21.40;61.40
16893;DHT22;8563;52.242;9.098;2022-09-01T10:21:08;21.50;60.30
16893;DHT22;8563;52.242;9.098;2022-09-01T10:23:42;21.60;59.80
16893;DHT22;8563;52.242;9.098;2022-09-01T10:26:17;21.70;58.70
16893;DHT22;8563;52.242;9.098;2022-09-01T10:28:53;21.90;59.80
16893;DHT22;8563;52.242;9.098;2022-09-01T10:31:27;21.90;60.00
16893;DHT22;8563;52.242;9.098;2022-09-01T10:34:03;21.60;58.80
16893;DHT22;8563;52.242;9.098;2022-09-01T10:36:40;21.20;59.10
16893;DHT22;8563;52.242;9.098;2022-09-01T10:39:14;21.20;61.30
16893;DHT22;8563;52.242;9.098;2022-09-01T10:41:50;21.40;59.60
16893;DHT22;8563;52.242;9.098;2022-09-01T10:44:24;21.50;57.40
16893;DHT22;8563;52.242;9.098;2022-09-01T10:47:02;21.50;58.50
16893;DHT22;8563;52.242;9.098;2022-09-01T10:53:01;21.60;58.70
16893;DHT22;8563;52.242;9.098;2022-09-01T10:55:43;21.40;58.90
16893;DHT22;8563;52.242;9.098;2022-09-01T10:58:38;21.30;58.80
16893;DHT22;8563;52.242;9.098;2022-09-01T11:01:14;21.20;59.80
16893;DHT22;8563;52.242;9.098;2022-09-01T11:03:52;21.20;59.80
16893;DHT22;8563;52.242;9.098;2022-09-01T11:09:38;21.40;57.30
16893;DHT22;8563;52.242;9.098;2022-09-01T11:12:25;21.40;57.50
16893;DHT22;8563;52.242;9.098;2022-09-01T11:15:01;21.60;57.60
16893;DHT22;8563;52.242;9.098;2022-09-01T11:17:36;21.60;57.10
16893;DHT22;8563;52.242;9.098;2022-09-01T11:20:19;21.90;57.60
16893;DHT22;8563;52.242;9.098;2022-09-01T11:23:00;22.20;56.10
16893;DHT22;8563;52.242;9.098;2022-09-01T11:25:39;22.30;53.50
16893;DHT22;8563;52.242;9.098;2022-09-01T11:28:35;22.30;50.80
16893;DHT22;8563;52.242;9.098;2022-09-01T11:31:24;22.30;50.10
16893;DHT22;8563;52.242;9.098;2022-09-01T11:34:12;22.40;52.00
16893;DHT22;8563;52.242;9.098;2022-09-01T11:36:54;22.10;50.70
16893;DHT22;8563;52.242;9.098;2022-09-01T11:39:40;22.10;50.60
16893;DHT22;8563;52.242;9.098;2022-09-01T11:42:18;22.10;50.00
16893;DHT22;8563;52.242;9.098;2022-09-01T11:44:55;21.90;51.00
16893;DHT22;8563;52.242;9.098;2022-09-01T11:47:32;21.60;52.00
16893;DHT22;8563;52.242;9.098;2022-09-01T11:50:18;21.70;51.80
16893;DHT22;8563;52.242;9.098;2022-09-01T11:52:53;21.90;50.80
16893;DHT22;8563;52.242;9.098;2022-09-01T11:55:28;21.90;50.60
16893;DHT22;8563;52.242;9.098;2022-09-01T11:58:03;22.30;50.60
16893;DHT22;8563;52.242;9.098;2022-09-01T12:00:38;22.30;50.00
16893;DHT22;8563;52.242;9.098;2022-09-01T12:03:19;22.20;49.80
16893;DHT22;8563;52.242;9.098;2022-09-01T12:05:53;22.20;50.10
16893;DHT22;8563;52.242;9.098;2022-09-01T12:08:32;22.30;50.00
16893;DHT22;8563;52.242;9.098;2022-09-01T12:11:07;22.10;50.50
16893;DHT22;8563;52.242;9.098;2022-09-01T12:13:54;22.30;50.90
16893;DHT22;8563;52.242;9.098;2022-09-01T12:16:31;22.40;50.80
16893;DHT22;8563;52.242;9.098;2022-09-01T12:19:05;22.30;49.20
16893;DHT22;8563;52.242;9.098;2022-09-01T12:21:42;22.20;49.00
16893;DHT22;8563;52.242;9.098;2022-09-01T12:24:29;22.40;49.00
16893;DHT22;8563;52.242;9.098;2022-09-01T12:27:03;22.20;47.90
16893;DHT22;8563;52.242;9.098;2022-09-01T12:29:37;22.00;48.00
16893;DHT22;8563;52.242;9.098;2022-09-01T12:32:10;22.00;48.00
16893;DHT22;8563;52.242;9.098;2022-09-01T12:34:47;22.30;48.40
16893;DHT22;8563;52.242;9.098;2022-09-01T12:37:30;22.50;47.80
16893;DHT22;8563;52.242;9.098;2022-09-01T12:40:03;22.50;46.90
16893;DHT22;8563;52.242;9.098;2022-09-01T12:42:36;22.20;47.20
16893;DHT22;8563;52.242;9.098;2022-09-01T12:45:10;22.20;47.30
16893;DHT22;8563;52.242;9.098;2022-09-01T12:47:46;22.30;47.10
16893;DHT22;8563;52.242;9.098;2022-09-01T12:50:46;22.30;46.70
16893;DHT22;8563;52.242;9.098;2022-09-01T12:53:26;22.10;46.80
16893;DHT22;8563;52.242;9.098;2022-09-01T12:56:20;21.90;47.90
16893;DHT22;8563;52.242;9.098;2022-09-01T12:59:05;21.70;47.40
16893;DHT22;8563;52.242;9.098;2022-09-01T13:01:40;21.70;47.80
16893;DHT22;8563;52.242;9.098;2022-09-01T13:04:23;21.80;48.10
16893;DHT22;8563;52.242;9.098;2022-09-01T13:06:59;22.00;47.70
16893;DHT22;8563;52.242;9.098;2022-09-01T13:09:32;22.10;46.70
16893;DHT22;8563;52.242;9.098;2022-09-01T13:12:19;22.30;46.70
16893;DHT22;8563;52.242;9.098;2022-09-01T13:14:51;22.60;47.10
16893;DHT22;8563;52.242;9.098;2022-09-01T13:17:25;22.70;46.30
16893;DHT22;8563;52.242;9.098;2022-09-01T13:19:58;22.80;46.20
16893;DHT22;8563;52.242;9.098;2022-09-01T13:22:30;22.70;45.50
16893;DHT22;8563;52.242;9.098;2022-09-01T13:25:03;22.80;45.70
16893;DHT22;8563;52.242;9.098;2022-09-01T13:27:35;23.00;45.80
16893;DHT22;8563;52.242;9.098;2022-09-01T13:30:10;23.00;44.70
16893;DHT22;8563;52.242;9.098;2022-09-01T13:32:47;22.90;45.40
16893;DHT22;8563;52.242;9.098;2022-09-01T13:35:21;23.00;45.60
16893;DHT22;8563;52.242;9.098;2022-09-01T13:37:54;23.30;44.80
16893;DHT22;8563;52.242;9.098;2022-09-01T13:40:26;23.10;44.60
16893;DHT22;8563;52.242;9.098;2022-09-01T13:42:58;23.30;44.90
16893;DHT22;8563;52.242;9.098;2022-09-01T13:45:31;23.20;44.30
16893;DHT22;8563;52.242;9.098;2022-09-01T13:48:06;23.10;44.30
16893;DHT22;8563;52.242;9.098;2022-09-01T13:50:38;23.10;44.60
16893;DHT22;8563;52.242;9.098;2022-09-01T13:53:11;23.30;44.50
16893;DHT22;8563;52.242;9.098;2022-09-01T13:55:44;23.50;43.80
16893;DHT22;8563;52.242;9.098;2022-09-01T13:58:16;23.50;44.30
16893;DHT22;8563;52.242;9.098;2022-09-01T14:00:49;23.60;44.20
16893;DHT22;8563;52.242;9.098;2022-09-01T14:03:24;23.40;44.70
16893;DHT22;8563;52.242;9.098;2022-09-01T14:05:56;23.10;44.70
16893;DHT22;8563;52.242;9.098;2022-09-01T14:08:28;22.90;45.10
16893;DHT22;8563;52.242;9.098;2022-09-01T14:11:03;23.00;44.90
16893;DHT22;8563;52.242;9.098;2022-09-01T14:13:35;23.10;44.60
16893;DHT22;8563;52.242;9.098;2022-09-01T14:16:09;23.20;44.30
16893;DHT22;8563;52.242;9.098;2022-09-01T14:18:43;23.30;44.20
16893;DHT22;8563;52.242;9.098;2022-09-01T14:21:16;23.40;44.30
16893;DHT22;8563;52.242;9.098;2022-09-01T14:23:48;23.50;44.50
16893;DHT22;8563;52.242;9.098;2022-09-01T14:26:21;23.50;45.30
16893;DHT22;8563;52.242;9.098;2022-09-01T14:28:53;23.00;44.70
16893;DHT22;8563;52.242;9.098;2022-09-01T14:31:26;22.60;45.40
16893;DHT22;8563;52.242;9.098;2022-09-01T14:34:00;22.20;46.00
16893;DHT22;8563;52.242;9.098;2022-09-01T14:36:33;22.10;46.50
16893;DHT22;8563;52.242;9.098;2022-09-01T14:39:06;22.20;46.60
16893;DHT22;8563;52.242;9.098;2022-09-01T14:41:38;22.40;46.10
16893;DHT22;8563;52.242;9.098;2022-09-01T14:44:10;22.60;46.10
16893;DHT22;8563;52.242;9.098;2022-09-01T14:46:43;22.40;45.30
16893;DHT22;8563;52.242;9.098;2022-09-01T14:49:17;22.10;45.70
16893;DHT22;8563;52.242;9.098;2022-09-01T14:51:50;22.00;46.00
16893;DHT22;8563;52.242;9.098;2022-09-01T14:54:22;22.00;46.30
16893;DHT22;8563;52.242;9.098;2022-09-01T14:56:55;22.10;46.20
16893;DHT22;8563;52.242;9.098;2022-09-01T14:59:27;22.20;46.70
16893;DHT22;8563;52.242;9.098;2022-09-01T15:02:00;22.40;45.70
16893;DHT22;8563;52.242;9.098;2022-09-01T15:04:34;22.50;45.40
16893;DHT22;8563;52.242;9.098;2022-09-01T15:07:06;22.50;45.40
16893;DHT22;8563;52.242;9.098;2022-09-01T15:09:39;22.30;46.40
16893;DHT22;8563;52.242;9.098;2022-09-01T15:12:12;22.20;47.00
16893;DHT22;8563;52.242;9.098;2022-09-01T15:14:44;22.00;46.30
16893;DHT22;8563;52.242;9.098;2022-09-01T15:17:16;22.00;46.50
16893;DHT22;8563;52.242;9.098;2022-09-01T15:19:50;22.00;46.90
16893;DHT22;8563;52.242;9.098;2022-09-01T15:22:23;22.10;46.40
16893;DHT22;8563;52.242;9.098;2022-09-01T15:24:55;22.10;46.40
16893;DHT22;8563;52.242;9.098;2022-09-01T15:27:27;22.20;46.60
16893;DHT22;8563;52.242;9.098;2022-09-01T15:29:59;22.30;46.60
16893;DHT22;8563;52.242;9.098;2022-09-01T15:32:32;22.40;45.90
16893;DHT22;8563;52.242;9.098;2022-09-01T15:35:08;22.50;46.40
16893;DHT22;8563;52.242;9.098;2022-09-01T15:37:41;22.60;45.40
16893;DHT22;8563;52.242;9.098;2022-09-01T15:40:14;22.50;45.80
16893;DHT22;8563;52.242;9.098;2022-09-01T15:42:46;22.40;45.80
16893;DHT22;8563;52.242;9.098;2022-09-01T15:45:20;22.40;46.10
16893;DHT22;8563;52.242;9.098;2022-09-01T15:47:53;22.40;45.70
16893;DHT22;8563;52.242;9.098;2022-09-01T15:50:27;22.40;46.10
16893;DHT22;8563;52.242;9.098;2022-09-01T15:53:02;22.50;46.80
16893;DHT22;8563;52.242;9.098;2022-09-01T15:55:41;22.50;47.10
16893;DHT22;8563;52.242;9.098;2022-09-01T15:58:16;22.50;46.60
16893;DHT22;8563;52.242;9.098;2022-09-01T16:00:49;22.30;47.00
16893;DHT22;8563;52.242;9.098;2022-09-01T16:03:22;22.20;48.00
16893;DHT22;8563;52.242;9.098;2022-09-01T16:05:58;22.20;48.30
16893;DHT22;8563;52.242;9.098;2022-09-01T16:08:31;22.10;48.50
16893;DHT22;8563;52.242;9.098;2022-09-01T16:11:05;22.10;48.10
16893;DHT22;8563;52.242;9.098;2022-09-01T16:13:40;22.10;48.70
16893;DHT22;8563;52.242;9.098;2022-09-01T16:16:28;22.10;48.10
16893;DHT22;8563;52.242;9.098;2022-09-01T16:19:06;22.10;48.10
16893;DHT22;8563;52.242;9.098;2022-09-01T16:21:50;22.00;48.10
16893;DHT22;8563;52.242;9.098;2022-09-01T16:24:24;21.90;48.70
16893;DHT22;8563;52.242;9.098;2022-09-01T16:26:56;21.80;48.20
16893;DHT22;8563;52.242;9.098;2022-09-01T16:29:43;21.60;48.70
16893;DHT22;8563;52.242;9.098;2022-09-01T16:32:18;21.50;49.00
16893;DHT22;8563;52.242;9.098;2022-09-01T16:34:53;21.40;49.50
16893;DHT22;8563;52.242;9.098;2022-09-01T16:37:37;21.30;50.20
16893;DHT22;8563;52.242;9.098;2022-09-01T16:40:20;21.20;50.30
16893;DHT22;8563;52.242;9.098;2022-09-01T16:43:02;21.10;50.70
16893;DHT22;8563;52.242;9.098;2022-09-01T16:45:44;21.10;50.70
16893;DHT22;8563;52.242;9.098;2022-09-01T16:48:25;21.00;51.30
16893;DHT22;8563;52.242;9.098;2022-09-01T16:51:08;20.90;51.20